Time;durP1;ratioP1;P1;durP2;ratioP2;P2;SDS_P1;SDS_P2;PMS_P1;PMS_P2;Temp;Humidity;BMP_temperature;BMP_pressure;BME280_temperature;BME280_humidity;BME280_pressure;Samples;Min_cycle;Max_cycle;Signal;HPM_P1;HPM_P2
2023/10/30 00:01:06;;;;;;;22.42;19.30;;;;;;;;;;4983401;28;20038;-52
2023/10/30 00:03:33;;;;;;;29.33;20.10;;;;;;;;;;4981325;28;20038;-48
2023/10/30 00:05:59;;;;;;;21.95;18.58;;;;;;;;;;4990453;28;20031;-49
2023/10/30 00:08:26;;;;;;;24.23;18.60;;;;;;;;;;4974907;28;20401;-50
2023/10/30 00:10:52;;;;;;;23.63;19.10;;;;;;;;;;4977030;28;20501;-52
2023/10/30 00:13:18;;;;;;;21.15;18.60;;;;;;;;;;4988616;28;20513;-51
2023/10/30 00:15:44;;;;;;;23.45;20.27;;;;;;;;;;4982629;28;20382;-52
2023/10/30 00:18:11;;;;;;;23.52;18.60;;;;;;;;;;4988186;28;20022;-52
2023/10/30 00:20:37;;;;;;;27.13;20.60;;;;;;;;;;4979262;28;20034;-51
2023/10/30 00:23:04;;;;;;;25.50;19.13;;;;;;;;;;4982323;28;20039;-50
2023/10/30 00:25:30;;;;;;;24.77;19.48;;;;;;;;;;4979303;28;20053;-48
2023/10/30 00:27:59;;;;;;;27.73;18.77;;;;;;;;;;4974910;28;20263;-49
2023/10/30 00:30:29;;;;;;;22.13;18.27;;;;;;;;;;4977695;28;20038;-49
2023/10/30 00:32:55;;;;;;;22.02;19.42;;;;;;;;;;4972674;28;20492;-49
2023/10/30 00:35:21;;;;;;;18.55;16.65;;;;;;;;;;4984201;28;20026;-52
2023/10/30 00:37:47;;;;;;;19.33;17.08;;;;;;;;;;4979192;28;20022;-49
2023/10/30 00:40:15;;;;;;;22.55;17.00;;;;;;;;;;4998549;28;20030;-52
2023/10/30 00:42:41;;;;;;;24.43;16.80;;;;;;;;;;4997249;28;20433;-49
2023/10/30 00:45:07;;;;;;;22.45;17.23;;;;;;;;;;4998439;28;20030;-51
2023/10/30 00:47:38;;;;;;;21.90;17.42;;;;;;;;;;4997197;28;20073;-53
2023/10/30 00:50:05;;;;;;;20.58;15.85;;;;;;;;;;4994738;28;20051;-49
2023/10/30 00:52:31;;;;;;;19.05;16.65;;;;;;;;;;4979214;28;20508;-49
2023/10/30 00:54:57;;;;;;;18.08;16.13;;;;;;;;;;4977753;28;20031;-50
2023/10/30 00:57:24;;;;;;;22.15;17.77;;;;;;;;;;4978808;28;20023;-52
2023/10/30 00:59:50;;;;;;;17.10;15.35;;;;;;;;;;4983017;28;20023;-52
2023/10/30 01:02:16;;;;;;;18.52;16.63;;;;;;;;;;4993161;28;20033;-50
2023/10/30 01:04:42;;;;;;;19.02;16.60;;;;;;;;;;4996886;28;20034;-52
2023/10/30 01:07:09;;;;;;;19.27;17.23;;;;;;;;;;4983940;28;20649;-50
2023/10/30 01:09:35;;;;;;;21.77;18.85;;;;;;;;;;4983656;28;20037;-51
2023/10/30 01:12:01;;;;;;;28.48;19.02;;;;;;;;;;4992701;28;20593;-49
2023/10/30 01:14:28;;;;;;;21.48;19.20;;;;;;;;;;4961351;28;20031;-53
2023/10/30 01:16:54;;;;;;;27.00;18.90;;;;;;;;;;4980767;28;20022;-49
2023/10/30 01:19:21;;;;;;;26.90;21.38;;;;;;;;;;4977429;28;20077;-52
2023/10/30 01:21:47;;;;;;;23.33;19.98;;;;;;;;;;4992536;28;20030;-49
2023/10/30 01:24:13;;;;;;;22.83;19.30;;;;;;;;;;4977482;28;20073;-54
2023/10/30 01:26:39;;;;;;;25.23;20.33;;;;;;;;;;4978460;28;20085;-51
2023/10/30 01:29:06;;;;;;;31.27;20.93;;;;;;;;;;4976613;28;20027;-52
2023/10/30 01:31:32;;;;;;;32.25;23.92;;;;;;;;;;4978237;28;20412;-51
2023/10/30 01:33:58;;;;;;;24.67;21.17;;;;;;;;;;4976688;28;20023;-50
2023/10/30 01:36:25;;;;;;;26.17;21.75;;;;;;;;;;4975058;28;20030;-53
2023/10/30 01:38:52;;;;;;;26.45;21.15;;;;;;;;;;4989924;28;20026;-49
2023/10/30 01:41:18;;;;;;;26.80;20.73;;;;;;;;;;4972171;28;20540;-49
2023/10/30 01:43:45;;;;;;;26.08;20.88;;;;;;;;;;4991977;28;20023;-52
2023/10/30 01:46:11;;;;;;;22.70;19.70;;;;;;;;;;4988892;28;20042;-49
2023/10/30 01:48:37;;;;;;;20.80;18.58;;;;;;;;;;4991827;28;20510;-50
2023/10/30 01:51:05;;;;;;;24.50;18.37;;;;;;;;;;4981638;28;20035;-49
2023/10/30 01:53:33;;;;;;;19.63;17.63;;;;;;;;;;4978414;28;20279;-53
2023/10/30 01:56:01;;;;;;;20.73;18.52;;;;;;;;;;4987681;28;20547;-50
2023/10/30 01:58:27;;;;;;;21.80;18.67;;;;;;;;;;4976392;28;20429;-53
2023/10/30 02:00:54;;;;;;;22.60;18.80;;;;;;;;;;4981740;28;20481;-50
2023/10/30 02:03:20;;;;;;;22.17;18.98;;;;;;;;;;4992747;28;20269;-52
2023/10/30 02:05:46;;;;;;;23.40;17.47;;;;;;;;;;4992816;28;20089;-54
2023/10/30 02:08:13;;;;;;;26.55;19.98;;;;;;;;;;4993815;28;20492;-51
2023/10/30 02:10:39;;;;;;;;;;;;;;;;;;4983648;28;20073;-53
2023/10/30 02:13:07;;;;;;;21.77;18.13;;;;;;;;;;4989734;28;19910;-51
2023/10/30 02:15:34;;;;;;;26.13;21.17;;;;;;;;;;4981553;28;20404;-49
2023/10/30 02:18:00;;;;;;;27.67;19.13;;;;;;;;;;4993783;28;20027;-49
2023/10/30 02:20:26;;;;;;;21.07;18.43;;;;;;;;;;4992459;28;20281;-52
2023/10/30 02:22:53;;;;;;;21.58;19.27;;;;;;;;;;4991423;28;20030;-49
2023/10/30 02:25:19;;;;;;;22.45;19.25;;;;;;;;;;4974872;28;20019;-51
2023/10/30 02:27:45;;;;;;;28.05;20.08;;;;;;;;;;4991233;28;20026;-49
2023/10/30 02:30:12;;;;;;;23.90;19.70;;;;;;;;;;4975242;28;20026;-49
2023/10/30 02:32:44;;;;;;;24.80;21.48;;;;;;;;;;4975513;28;20054;-50
2023/10/30 02:35:16;;;;;;;22.83;20.13;;;;;;;;;;4999409;28;20489;-51
2023/10/30 02:37:43;;;;;;;22.20;19.88;;;;;;;;;;4991771;28;20038;-52
2023/10/30 02:40:10;;;;;;;28.17;21.08;;;;;;;;;;4987277;28;20026;-49
2023/10/30 02:42:36;;;;;;;23.85;20.15;;;;;;;;;;4973323;28;20035;-50
2023/10/30 02:45:05;;;;;;;32.13;20.30;;;;;;;;;;4973027;28;20437;-51
2023/10/30 02:47:32;;;;;;;25.77;20.35;;;;;;;;;;4974105;28;20041;-52
2023/10/30 02:50:00;;;;;;;25.95;21.00;;;;;;;;;;4972764;28;20454;-49
2023/10/30 02:52:28;;;;;;;23.50;20.70;;;;;;;;;;4962409;28;20026;-49
2023/10/30 02:54:55;;;;;;;30.42;23.55;;;;;;;;;;4992278;28;20448;-50
2023/10/30 02:57:21;;;;;;;24.00;21.40;;;;;;;;;;4993426;28;20027;-52
2023/10/30 02:59:47;;;;;;;27.25;23.15;;;;;;;;;;4987599;28;20077;-53
2023/10/30 03:02:14;;;;;;;26.77;22.08;;;;;;;;;;4988215;28;20030;-52
2023/10/30 03:04:40;;;;;;;24.88;22.05;;;;;;;;;;4987900;28;20126;-50
2023/10/30 03:07:06;;;;;;;26.03;22.37;;;;;;;;;;4991804;28;20501;-51
2023/10/30 03:09:33;;;;;;;24.00;20.67;;;;;;;;;;4961394;28;20034;-50
2023/10/30 03:11:59;;;;;;;24.85;20.60;;;;;;;;;;4980093;28;20065;-52
2023/10/30 03:14:26;;;;;;;26.10;22.23;;;;;;;;;;4983397;28;20030;-53
2023/10/30 03:16:53;;;;;;;24.55;21.08;;;;;;;;;;4978435;28;20035;-50
2023/10/30 03:19:19;;;;;;;30.48;24.52;;;;;;;;;;4989621;28;20363;-53
2023/10/30 03:21:45;;;;;;;26.70;21.83;;;;;;;;;;4973921;28;20030;-53
2023/10/30 03:24:11;;;;;;;30.42;20.90;;;;;;;;;;4974816;28;20126;-54
2023/10/30 03:26:38;;;;;;;30.50;22.03;;;;;;;;;;4958531;28;20175;-51
2023/10/30 03:29:04;;;;;;;28.17;22.95;;;;;;;;;;4973561;28;20313;-53
2023/10/30 03:31:30;;;;;;;29.33;24.00;;;;;;;;;;4982125;28;20125;-51
2023/10/30 03:33:56;;;;;;;26.40;22.73;;;;;;;;;;4978726;28;20040;-52
2023/10/30 03:36:23;;;;;;;29.27;24.53;;;;;;;;;;4982382;28;20026;-53
2023/10/30 03:38:53;;;;;;;33.17;24.50;;;;;;;;;;4991168;28;20026;-51
2023/10/30 03:41:19;;;;;;;34.15;25.92;;;;;;;;;;4985031;28;20035;-53
2023/10/30 03:43:46;;;;;;;73.45;32.38;;;;;;;;;;4992113;28;20493;-53
2023/10/30 03:46:13;;;;;;;47.40;29.00;;;;;;;;;;4980809;28;20153;-53
2023/10/30 03:48:41;;;;;;;71.10;30.92;;;;;;;;;;4972427;28;20277;-53
2023/10/30 03:51:08;;;;;;;43.43;29.23;;;;;;;;;;4986827;28;20504;-52
2023/10/30 03:53:34;;;;;;;53.63;32.65;;;;;;;;;;4987286;28;20375;-52
2023/10/30 03:56:04;;;;;;;74.68;34.00;;;;;;;;;;4991215;28;20030;-53
2023/10/30 03:58:31;;;;;;;105.93;39.50;;;;;;;;;;4986596;28;20575;-50
2023/10/30 04:00:57;;;;;;;56.80;31.60;;;;;;;;;;4984284;28;20488;-53
2023/10/30 04:03:23;;;;;;;36.10;29.15;;;;;;;;;;4972769;28;20054;-52
2023/10/30 04:05:49;;;;;;;38.60;30.08;;;;;;;;;;4991182;28;20040;-52
2023/10/30 04:08:15;;;;;;;36.17;29.30;;;;;;;;;;4974903;28;20061;-51
2023/10/30 04:10:42;;;;;;;52.75;34.22;;;;;;;;;;4984704;28;20386;-49
2023/10/30 04:13:08;;;;;;;35.90;27.97;;;;;;;;;;4986699;28;20023;-51
2023/10/30 04:15:36;;;;;;;53.43;33.53;;;;;;;;;;4991527;28;20033;-50
2023/10/30 04:18:02;;;;;;;43.38;31.60;;;;;;;;;;4976911;28;20077;-53
2023/10/30 04:20:28;;;;;;;40.95;30.65;;;;;;;;;;4972938;28;20404;-52
2023/10/30 04:22:54;;;;;;;37.92;30.10;;;;;;;;;;4980535;28;20014;-53
2023/10/30 04:25:21;;;;;;;37.80;29.17;;;;;;;;;;4990996;28;20033;-53
2023/10/30 04:27:47;;;;;;;40.57;29.50;;;;;;;;;;4992010;28;20030;-51
2023/10/30 04:30:13;;;;;;;36.83;27.73;;;;;;;;;;4990107;28;20023;-50
2023/10/30 04:32:40;;;;;;;39.50;29.73;;;;;;;;;;4984425;28;20031;-49
2023/10/30 04:35:06;;;;;;;41.35;29.80;;;;;;;;;;4992179;28;20056;-49
2023/10/30 04:37:32;;;;;;;42.80;30.33;;;;;;;;;;4991897;28;20018;-53
2023/10/30 04:39:58;;;;;;;41.95;29.48;;;;;;;;;;4975111;28;20035;-49
2023/10/30 04:42:25;;;;;;;45.65;31.33;;;;;;;;;;4973297;28;20510;-49
2023/10/30 04:44:51;;;;;;;38.25;28.65;;;;;;;;;;4983523;28;20034;-53
2023/10/30 04:47:19;;;;;;;39.67;30.65;;;;;;;;;;4991084;28;20080;-51
2023/10/30 04:49:45;;;;;;;35.35;28.00;;;;;;;;;;5037073;23;20073;-46
2023/10/30 04:52:12;;;;;;;40.40;31.10;;;;;;;;;;5010495;28;20403;-46
2023/10/30 04:54:39;;;;;;;42.03;31.58;;;;;;;;;;5003298;28;20026;-50
2023/10/30 04:57:05;;;;;;;39.63;30.27;;;;;;;;;;5010244;28;20041;-52
2023/10/30 04:59:31;;;;;;;41.40;31.23;;;;;;;;;;5007374;28;20422;-55
2023/10/30 05:01:57;;;;;;;42.75;30.45;;;;;;;;;;4991837;28;20018;-52
2023/10/30 05:04:23;;;;;;;39.23;28.97;;;;;;;;;;4994571;28;20053;-52
2023/10/30 05:06:50;;;;;;;40.17;30.65;;;;;;;;;;4994187;28;20034;-51
2023/10/30 05:09:16;;;;;;;35.90;28.83;;;;;;;;;;4995657;28;20414;-53
2023/10/30 05:11:42;;;;;;;41.30;32.10;;;;;;;;;;4994132;28;20037;-52
2023/10/30 05:14:08;;;;;;;42.30;30.73;;;;;;;;;;4994252;28;20054;-50
2023/10/30 05:16:35;;;;;;;49.35;35.38;;;;;;;;;;4995366;28;20022;-51
2023/10/30 05:19:01;;;;;;;43.92;31.33;;;;;;;;;;4995528;28;20030;-49
2023/10/30 05:21:27;;;;;;;38.88;29.48;;;;;;;;;;4994144;28;20030;-49
2023/10/30 05:23:53;;;;;;;44.70;31.20;;;;;;;;;;4994123;28;20042;-51
2023/10/30 05:26:20;;;;;;;47.70;33.20;;;;;;;;;;4993879;28;20528;-54
2023/10/30 05:28:46;;;;;;;39.75;29.92;;;;;;;;;;4995143;28;20424;-53
2023/10/30 05:31:12;;;;;;;38.58;28.63;;;;;;;;;;4995038;28;20027;-52
2023/10/30 05:33:38;;;;;;;35.75;28.60;;;;;;;;;;4995135;28;20034;-51
2023/10/30 05:36:05;;;;;;;35.17;29.10;;;;;;;;;;4994918;28;20026;-51
2023/10/30 05:38:31;;;;;;;40.90;29.40;;;;;;;;;;4995190;28;20030;-49
2023/10/30 05:40:57;;;;;;;39.35;29.10;;;;;;;;;;4993660;28;20042;-51
2023/10/30 05:43:24;;;;;;;48.97;32.77;;;;;;;;;;4994910;28;20030;-49
2023/10/30 05:45:50;;;;;;;46.23;31.13;;;;;;;;;;4994944;28;20038;-49
2023/10/30 05:48:16;;;;;;;34.80;27.08;;;;;;;;;;4994944;28;20030;-48
2023/10/30 05:50:43;;;;;;;40.92;29.90;;;;;;;;;;4994585;28;20117;-51
2023/10/30 05:53:09;;;;;;;39.58;28.98;;;;;;;;;;4994733;28;20030;-52
2023/10/30 05:55:35;;;;;;;34.00;26.98;;;;;;;;;;4994665;28;20035;-48
2023/10/30 05:58:02;;;;;;;41.73;26.07;;;;;;;;;;4994728;28;20358;-49
2023/10/30 06:00:29;;;;;;;36.78;28.00;;;;;;;;;;4994591;28;20392;-53
2023/10/30 06:02:55;;;;;;;34.85;26.60;;;;;;;;;;4994562;28;20436;-49
2023/10/30 06:05:22;;;;;;;36.15;29.27;;;;;;;;;;4993219;28;20026;-49
2023/10/30 06:07:48;;;;;;;43.80;32.63;;;;;;;;;;4994435;28;20389;-53
2023/10/30 06:10:16;;;;;;;45.75;32.90;;;;;;;;;;4994345;28;20260;-54
2023/10/30 06:12:44;;;;;;;55.88;34.75;;;;;;;;;;4994282;28;20027;-53
2023/10/30 06:15:10;;;;;;;42.25;29.38;;;;;;;;;;4992335;28;20552;-49
2023/10/30 06:17:36;;;;;;;37.00;29.63;;;;;;;;;;4994207;28;20022;-53
2023/10/30 06:20:03;;;;;;;47.95;32.00;;;;;;;;;;4994216;28;20031;-49
2023/10/30 06:22:29;;;;;;;43.20;29.33;;;;;;;;;;4992921;28;20041;-48
2023/10/30 06:24:58;;;;;;;55.85;37.10;;;;;;;;;;4994150;28;20070;-49
2023/10/30 06:27:24;;;;;;;51.78;34.72;;;;;;;;;;4984390;28;20034;-50
2023/10/30 06:29:50;;;;;;;52.33;32.50;;;;;;;;;;4974656;28;20388;-53
2023/10/30 06:32:16;;;;;;;44.55;29.75;;;;;;;;;;4974701;28;20031;-48
2023/10/30 06:34:42;;;;;;;47.33;31.42;;;;;;;;;;4974612;28;20027;-49
2023/10/30 06:37:09;;;;;;;44.25;30.35;;;;;;;;;;4973513;28;20031;-51
2023/10/30 06:39:36;;;;;;;48.90;29.75;;;;;;;;;;4974667;28;20023;-47
2023/10/30 06:42:02;;;;;;;45.47;29.50;;;;;;;;;;4974438;28;20035;-48
2023/10/30 06:44:30;;;;;;;49.17;29.67;;;;;;;;;;4974531;28;20038;-47
2023/10/30 06:46:57;;;;;;;39.38;28.65;;;;;;;;;;4973033;28;20106;-49
2023/10/30 06:49:24;;;;;;;41.22;28.30;;;;;;;;;;4977885;28;20057;-49
2023/10/30 06:51:50;;;;;;;47.33;31.47;;;;;;;;;;4990275;28;20068;-50
2023/10/30 06:54:16;;;;;;;49.58;31.02;;;;;;;;;;4991919;28;20038;-47
2023/10/30 06:56:42;;;;;;;51.10;31.77;;;;;;;;;;4993566;28;20018;-49
2023/10/30 06:59:14;;;;;;;44.28;30.95;;;;;;;;;;4993133;28;20022;-48
2023/10/30 07:01:43;;;;;;;42.00;28.95;;;;;;;;;;4993489;28;20038;-47
2023/10/30 07:04:10;;;;;;;42.67;30.08;;;;;;;;;;4992688;28;20042;-47
2023/10/30 07:06:37;;;;;;;40.08;31.35;;;;;;;;;;4993146;28;20030;-47
2023/10/30 07:09:03;;;;;;;;;;;;;;;;;;4975990;28;20046;-53
2023/10/30 07:11:30;;;;;;;48.72;32.65;;;;;;;;;;4993110;28;19918;-51
2023/10/30 07:13:56;;;;;;;46.58;33.53;;;;;;;;;;4992695;28;20034;-51
2023/10/30 07:16:22;;;;;;;48.88;32.45;;;;;;;;;;4991668;28;20026;-50
2023/10/30 07:18:48;;;;;;;47.38;30.75;;;;;;;;;;4992308;28;20516;-49
2023/10/30 07:21:15;;;;;;;43.67;29.00;;;;;;;;;;4992914;28;20030;-49
2023/10/30 07:23:41;;;;;;;45.67;30.92;;;;;;;;;;4992563;28;20054;-50
2023/10/30 07:26:07;;;;;;;40.15;28.77;;;;;;;;;;4991111;28;20030;-50
2023/10/30 07:28:33;;;;;;;44.78;29.80;;;;;;;;;;4990413;28;20030;-55
2023/10/30 07:31:00;;;;;;;46.95;31.67;;;;;;;;;;4992926;28;20034;-53
2023/10/30 07:33:26;;;;;;;52.15;32.50;;;;;;;;;;4991078;28;20018;-50
2023/10/30 07:35:55;;;;;;;47.75;30.98;;;;;;;;;;4992460;28;20030;-56
2023/10/30 07:38:22;;;;;;;43.75;28.30;;;;;;;;;;4991073;28;20488;-52
2023/10/30 07:40:48;;;;;;;39.58;26.40;;;;;;;;;;4992666;28;20507;-55
2023/10/30 07:43:14;;;;;;;38.72;27.80;;;;;;;;;;4992305;28;20027;-53
2023/10/30 07:45:41;;;;;;;40.72;26.42;;;;;;;;;;4991512;28;20030;-54
2023/10/30 07:48:07;;;;;;;37.65;26.02;;;;;;;;;;4990704;28;20051;-50
2023/10/30 07:50:36;;;;;;;32.93;23.73;;;;;;;;;;4990854;28;20543;-52
2023/10/30 07:53:03;;;;;;;31.00;22.52;;;;;;;;;;4992019;28;20026;-54
2023/10/30 07:55:30;;;;;;;29.45;21.05;;;;;;;;;;4990454;28;20022;-51
2023/10/30 07:57:56;;;;;;;;;;;;;;;;;;4992418;28;20022;-46
2023/10/30 08:00:22;;;;;;;27.95;19.92;;;;;;;;;;4991004;28;19910;-46
2023/10/30 08:02:50;;;;;;;23.77;16.40;;;;;;;;;;4990851;28;20112;-50
2023/10/30 08:05:16;;;;;;;21.98;17.05;;;;;;;;;;4991582;28;20053;-46
2023/10/30 08:07:44;;;;;;;22.98;16.80;;;;;;;;;;4992427;28;20551;-47
2023/10/30 08:10:14;;;;;;;27.90;17.67;;;;;;;;;;4991751;28;20563;-46
2023/10/30 08:12:40;;;;;;;21.95;16.08;;;;;;;;;;4992353;28;20548;-47
2023/10/30 08:15:07;;;;;;;20.27;14.45;;;;;;;;;;4990532;28;20026;-46
2023/10/30 08:17:33;;;;;;;16.38;13.48;;;;;;;;;;4992041;28;20031;-47
2023/10/30 08:19:59;;;;;;;18.20;13.70;;;;;;;;;;4991449;28;20493;-46
2023/10/30 08:22:26;;;;;;;15.87;13.93;;;;;;;;;;4992305;28;20042;-52
2023/10/30 08:24:52;;;;;;;20.63;15.03;;;;;;;;;;4992388;28;20035;-50
2023/10/30 08:27:18;;;;;;;19.33;14.30;;;;;;;;;;4992199;28;20397;-51
2023/10/30 08:29:45;;;;;;;19.70;15.27;;;;;;;;;;4992122;28;20065;-52
2023/10/30 08:32:11;;;;;;;17.55;15.27;;;;;;;;;;4976923;28;20065;-53
2023/10/30 08:34:37;;;;;;;20.23;16.57;;;;;;;;;;4972906;28;20077;-53
2023/10/30 08:37:03;;;;;;;42.00;30.70;;;;;;;;;;4972654;28;20058;-54
2023/10/30 08:39:30;;;;;;;20.63;16.10;;;;;;;;;;4975790;28;20035;-50
2023/10/30 08:41:56;;;;;;;20.83;15.30;;;;;;;;;;4976677;28;20405;-49
2023/10/30 08:44:22;;;;;;;21.80;15.25;;;;;;;;;;4976592;28;20027;-49
2023/10/30 08:46:48;;;;;;;18.67;14.57;;;;;;;;;;4976408;28;20042;-49
2023/10/30 08:49:14;;;;;;;17.60;13.50;;;;;;;;;;4976584;28;20114;-49
2023/10/30 08:51:41;;;;;;;22.08;14.13;;;;;;;;;;4975146;28;20045;-49
2023/10/30 08:54:07;;;;;;;16.85;14.88;;;;;;;;;;4976614;28;20038;-52
2023/10/30 08:56:33;;;;;;;16.63;13.43;;;;;;;;;;4976275;28;20026;-54
2023/10/30 08:59:00;;;;;;;18.93;15.13;;;;;;;;;;4976338;28;20035;-54
2023/10/30 09:01:29;;;;;;;25.35;14.98;;;;;;;;;;4976229;28;20133;-51
2023/10/30 09:03:56;;;;;;;20.52;14.95;;;;;;;;;;4976468;28;20485;-51
2023/10/30 09:06:22;;;;;;;21.80;15.77;;;;;;;;;;4976072;28;20121;-54
2023/10/30 09:08:48;;;;;;;16.20;13.05;;;;;;;;;;4976222;28;20031;-51
2023/10/30 09:11:14;;;;;;;19.50;14.10;;;;;;;;;;4974714;28;20548;-57
2023/10/30 09:13:40;;;;;;;17.73;13.32;;;;;;;;;;4976160;28;20034;-52
2023/10/30 09:16:07;;;;;;;16.80;11.85;;;;;;;;;;4975777;28;20023;-51
2023/10/30 09:18:33;;;;;;;25.23;12.18;;;;;;;;;;4976008;28;20031;-49
2023/10/30 09:20:59;;;;;;;17.73;12.87;;;;;;;;;;4975951;28;20448;-49
2023/10/30 09:23:26;;;;;;;23.58;12.60;;;;;;;;;;4975865;28;20090;-50
2023/10/30 09:25:52;;;;;;;18.50;11.85;;;;;;;;;;4975688;28;20107;-54
2023/10/30 09:28:18;;;;;;;15.77;11.80;;;;;;;;;;4975640;28;20433;-54
2023/10/30 09:30:44;;;;;;;15.40;11.50;;;;;;;;;;4975686;28;20038;-54
2023/10/30 09:33:11;;;;;;;16.88;10.95;;;;;;;;;;4975723;28;20405;-50
2023/10/30 09:35:38;;;;;;;15.52;10.77;;;;;;;;;;4975600;28;20533;-54
2023/10/30 09:38:05;;;;;;;15.93;9.38;;;;;;;;;;4975826;28;20110;-51
2023/10/30 09:40:31;;;;;;;13.90;8.52;;;;;;;;;;4975343;28;20107;-50
2023/10/30 09:42:59;;;;;;;14.65;8.85;;;;;;;;;;4975409;28;20033;-52
2023/10/30 09:45:27;;;;;;;12.25;9.07;;;;;;;;;;4974120;28;20034;-53
2023/10/30 09:47:54;;;;;;;10.15;8.65;;;;;;;;;;4975253;28;20046;-55
2023/10/30 09:50:22;;;;;;;13.57;8.68;;;;;;;;;;4974062;28;20097;-52
2023/10/30 09:52:48;;;;;;;13.50;9.82;;;;;;;;;;4975100;28;20062;-55
2023/10/30 09:55:17;;;;;;;13.43;10.75;;;;;;;;;;4975157;28;20035;-52
2023/10/30 09:57:43;;;;;;;13.00;9.70;;;;;;;;;;4975014;28;20037;-50
2023/10/30 10:00:09;;;;;;;13.23;10.27;;;;;;;;;;4974987;28;20027;-49
2023/10/30 10:02:36;;;;;;;17.27;13.38;;;;;;;;;;4975180;28;20405;-49
2023/10/30 10:05:02;;;;;;;14.43;11.55;;;;;;;;;;4975233;28;20038;-49
2023/10/30 10:07:29;;;;;;;14.43;10.93;;;;;;;;;;4973642;28;20397;-49
2023/10/30 10:10:01;;;;;;;13.55;10.27;;;;;;;;;;4974848;28;20513;-53
2023/10/30 10:12:29;;;;;;;15.57;9.82;;;;;;;;;;4975147;28;20038;-49
2023/10/30 10:14:56;;;;;;;13.05;9.80;;;;;;;;;;4975034;28;20110;-52
2023/10/30 10:17:22;;;;;;;11.33;7.73;;;;;;;;;;4974774;28;20019;-49
2023/10/30 10:19:49;;;;;;;8.80;7.80;;;;;;;;;;4974788;28;20262;-49
2023/10/30 10:22:35;;;;;;;10.32;7.50;;;;;;;;;;4974722;28;20030;-51
2023/10/30 10:25:02;;;;;;;8.65;7.60;;;;;;;;;;4973461;28;20039;-51
2023/10/30 10:27:28;;;;;;;10.52;8.05;;;;;;;;;;4974521;28;20033;-52
2023/10/30 10:29:55;;;;;;;10.13;9.07;;;;;;;;;;4974568;28;20027;-52
2023/10/30 10:32:25;;;;;;;11.82;9.55;;;;;;;;;;4974492;28;20019;-52
2023/10/30 10:34:52;;;;;;;15.75;10.30;;;;;;;;;;4974449;28;20501;-51
2023/10/30 10:37:18;;;;;;;12.13;10.00;;;;;;;;;;4974405;28;20022;-52
2023/10/30 10:39:48;;;;;;;15.82;11.95;;;;;;;;;;4974403;28;20023;-52
2023/10/30 10:42:17;;;;;;;16.15;11.45;;;;;;;;;;4973147;28;20082;-49
2023/10/30 10:44:45;;;;;;;10.65;7.05;;;;;;;;;;4974296;28;20023;-51
2023/10/30 10:47:11;;;;;;;9.75;6.63;;;;;;;;;;4974089;28;20048;-49
2023/10/30 10:52:13;;;;;;;10.80;6.90;;;;;;;;;;4951717;28;20039;-51
2023/10/30 10:54:54;;;;;;;11.88;7.88;;;;;;;;;;4954849;28;20082;-49
2023/10/30 10:57:21;;;;;;;17.80;6.88;;;;;;;;;;4954693;28;20054;-51
2023/10/30 10:59:47;;;;;;;;;;;;;;;;;;4955127;28;20038;-54
2023/10/30 11:02:21;;;;;;;17.23;11.23;;;;;;;;;;4953231;28;19910;-52
2023/10/30 11:04:51;;;;;;;16.55;10.98;;;;;;;;;;4954787;28;20109;-54
2023/10/30 11:07:37;;;;;;;9.23;7.57;;;;;;;;;;4954592;28;20027;-51
2023/10/30 11:10:06;;;;;;;18.85;8.57;;;;;;;;;;4954399;28;20035;-54
2023/10/30 11:12:37;;;;;;;13.93;7.15;;;;;;;;;;4954387;28;20035;-54
2023/10/30 11:15:09;;;;;;;14.80;8.65;;;;;;;;;;4954561;28;20171;-51
2023/10/30 11:17:36;;;;;;;12.05;7.40;;;;;;;;;;4953078;28;20031;-56
2023/10/30 11:20:03;;;;;;;15.68;7.22;;;;;;;;;;4954108;28;20043;-51
2023/10/30 11:22:43;;;;;;;11.48;6.43;;;;;;;;;;4950456;28;20185;-58
2023/10/30 11:25:51;;;;;;;11.15;7.38;;;;;;;;;;4951370;29;20089;-54
2023/10/30 11:28:17;;;;;;;10.75;7.45;;;;;;;;;;4931167;29;20067;-50
2023/10/30 11:30:44;;;;;;;14.55;8.60;;;;;;;;;;4950444;28;20040;-53
2023/10/30 11:33:20;;;;;;;13.80;8.90;;;;;;;;;;4949651;28;20036;-54
2023/10/30 11:35:51;;;;;;;11.18;6.82;;;;;;;;;;4949162;29;20027;-55
2023/10/30 11:38:18;;;;;;;12.90;7.43;;;;;;;;;;4935302;29;20028;-54
2023/10/30 11:41:01;;;;;;;11.18;6.00;;;;;;;;;;4917948;29;20032;-54
2023/10/30 11:43:29;;;;;;;14.57;8.95;;;;;;;;;;4935012;29;20028;-54
2023/10/30 11:46:02;;;;;;;10.85;8.13;;;;;;;;;;4948145;29;20038;-50
2023/10/30 11:48:28;;;;;;;42.40;35.88;;;;;;;;;;4936816;29;20136;-55
2023/10/30 11:50:54;;;;;;;31.33;23.43;;;;;;;;;;4928526;29;20043;-56
2023/10/30 11:53:21;;;;;;;16.70;12.43;;;;;;;;;;4940262;28;20035;-51
2023/10/30 11:55:48;;;;;;;18.00;13.40;;;;;;;;;;4945114;28;20028;-49
2023/10/30 11:58:15;;;;;;;16.48;8.13;;;;;;;;;;4947654;29;20059;-56
2023/10/30 12:00:45;;;;;;;9.27;6.53;;;;;;;;;;4950445;28;20039;-51
2023/10/30 12:03:12;;;;;;;11.98;8.50;;;;;;;;;;4956784;28;20486;-50
2023/10/30 12:05:38;;;;;;;11.02;6.18;;;;;;;;;;4955120;28;20079;-50
2023/10/30 12:08:06;;;;;;;9.20;8.20;;;;;;;;;;4946787;29;20036;-51
2023/10/30 12:10:32;;;;;;;9.48;6.70;;;;;;;;;;4943724;29;20031;-50
2023/10/30 12:12:59;;;;;;;6.75;5.47;;;;;;;;;;4951180;28;20038;-49
2023/10/30 12:15:28;;;;;;;5.82;3.65;;;;;;;;;;4951515;28;20051;-54
2023/10/30 12:17:56;;;;;;;9.88;3.90;;;;;;;;;;4952324;28;20486;-51
2023/10/30 12:20:22;;;;;;;5.07;3.25;;;;;;;;;;4929538;29;20049;-55
2023/10/30 12:22:48;;;;;;;7.17;4.47;;;;;;;;;;4939488;29;20086;-53
2023/10/30 12:25:15;;;;;;;7.83;4.10;;;;;;;;;;4950884;28;20328;-55
2023/10/30 12:27:43;;;;;;;10.65;4.85;;;;;;;;;;4951627;28;20067;-50
2023/10/30 12:30:13;;;;;;;8.23;6.65;;;;;;;;;;4951306;28;20027;-57
2023/10/30 12:32:41;;;;;;;6.18;5.43;;;;;;;;;;4951144;28;20525;-56
2023/10/30 12:35:11;;;;;;;11.77;6.63;;;;;;;;;;4953316;28;20028;-53
2023/10/30 12:37:41;;;;;;;23.65;14.38;;;;;;;;;;4951882;28;20023;-55
2023/10/30 12:40:08;;;;;;;14.85;8.90;;;;;;;;;;4951813;28;20175;-53
2023/10/30 12:42:35;;;;;;;15.20;11.35;;;;;;;;;;4952056;28;20508;-51
2023/10/30 12:45:17;;;;;;;19.10;11.95;;;;;;;;;;4951861;28;20042;-50
2023/10/30 12:47:45;;;;;;;11.82;7.03;;;;;;;;;;4932151;29;20035;-54
2023/10/30 12:50:11;;;;;;;;;;;;;;;;;;4931855;29;20490;-52
2023/10/30 12:52:37;;;;;;;6.22;2.88;;;;;;;;;;4940464;29;20065;-51
2023/10/30 12:55:03;;;;;;;8.93;3.90;;;;;;;;;;4953213;28;20031;-50
2023/10/30 12:57:30;;;;;;;11.15;5.18;;;;;;;;;;4953062;28;20028;-52
2023/10/30 12:59:56;;;;;;;5.33;3.33;;;;;;;;;;4953185;28;20379;-53
2023/10/30 13:02:22;;;;;;;12.43;3.77;;;;;;;;;;4953188;28;20267;-53
2023/10/30 13:04:48;;;;;;;5.38;3.58;;;;;;;;;;4953227;28;20416;-51
2023/10/30 13:07:15;;;;;;;8.50;4.30;;;;;;;;;;4951874;29;20533;-52
2023/10/30 13:09:42;;;;;;;7.75;3.53;;;;;;;;;;4951800;28;20290;-50
2023/10/30 13:12:08;;;;;;;9.93;5.40;;;;;;;;;;4952983;28;20521;-56
2023/10/30 13:14:34;;;;;;;8.77;4.93;;;;;;;;;;4953169;28;20505;-50
2023/10/30 13:17:01;;;;;;;5.03;3.00;;;;;;;;;;4941874;28;20431;-50
2023/10/30 13:19:27;;;;;;;7.77;3.70;;;;;;;;;;4933984;29;20114;-51
2023/10/30 13:21:53;;;;;;;8.43;3.17;;;;;;;;;;4934007;29;20038;-52
2023/10/30 13:24:19;;;;;;;4.72;3.08;;;;;;;;;;4938917;29;20034;-50
2023/10/30 13:26:45;;;;;;;6.03;3.38;;;;;;;;;;4939050;29;20034;-50
2023/10/30 13:29:12;;;;;;;9.43;4.55;;;;;;;;;;4955195;28;20035;-50
2023/10/30 13:31:38;;;;;;;12.13;4.27;;;;;;;;;;4956119;28;20500;-52
2023/10/30 13:34:04;;;;;;;5.13;2.97;;;;;;;;;;4953082;28;20094;-52
2023/10/30 13:36:31;;;;;;;6.20;4.10;;;;;;;;;;4942274;29;20835;-51
2023/10/30 13:38:57;;;;;;;15.38;6.03;;;;;;;;;;4956207;28;20023;-52
2023/10/30 13:41:23;;;;;;;12.03;6.47;;;;;;;;;;4956098;28;20042;-50
2023/10/30 13:43:51;;;;;;;5.55;4.65;;;;;;;;;;4956272;28;20738;-51
2023/10/30 13:46:17;;;;;;;7.22;5.10;;;;;;;;;;4955905;28;20478;-52
2023/10/30 13:48:43;;;;;;;8.07;4.82;;;;;;;;;;4955997;28;20086;-54
2023/10/30 13:51:09;;;;;;;6.97;5.27;;;;;;;;;;4946532;28;20036;-54
2023/10/30 13:53:35;;;;;;;9.23;6.60;;;;;;;;;;4940515;29;20077;-50
2023/10/30 13:56:03;;;;;;;23.37;17.20;;;;;;;;;;4947574;28;20108;-50
2023/10/30 13:58:29;;;;;;;36.35;28.35;;;;;;;;;;4946188;29;20031;-57
2023/10/30 14:00:56;;;;;;;10.70;5.47;;;;;;;;;;4955828;28;20038;-55
2023/10/30 14:03:22;;;;;;;8.27;5.63;;;;;;;;;;4954617;29;20267;-51
2023/10/30 14:05:51;;;;;;;8.80;4.93;;;;;;;;;;4954695;29;20027;-56
2023/10/30 14:08:18;;;;;;;11.00;6.93;;;;;;;;;;4954606;29;20042;-53
2023/10/30 14:10:44;;;;;;;13.15;8.55;;;;;;;;;;4955719;28;20027;-51
2023/10/30 14:13:11;;;;;;;11.70;3.97;;;;;;;;;;4952967;28;20041;-50
2023/10/30 14:15:37;;;;;;;5.03;2.93;;;;;;;;;;4955599;29;20039;-50
2023/10/30 14:18:03;;;;;;;7.47;4.10;;;;;;;;;;4955488;28;20415;-58
2023/10/30 14:20:29;;;;;;;5.40;3.53;;;;;;;;;;4955439;29;20421;-53
2023/10/30 14:22:55;;;;;;;11.03;4.47;;;;;;;;;;4955411;28;20106;-53
2023/10/30 14:25:22;;;;;;;4.07;2.47;;;;;;;;;;4955417;28;20039;-53